sensor_id;sensor_type;location;lat;lon;timestamp;P1;durP1;ratioP1;P2;durP2;ratioP2
13108;SDS011;6620;53.734;11.510;2023-05-07T00:01:31;74.82;;;70.30;;
13108;SDS011;6620;53.734;11.510;2023-05-07T00:03:56;93.30;;;87.75;;
13108;SDS011;6620;53.734;11.510;2023-05-07T00:06:21;68.65;;;64.38;;
13108;SDS011;6620;53.734;11.510;2023-05-07T00:08:47;84.93;;;79.85;;
13108;SDS011;6620;53.734;11.510;2023-05-07T00:11:13;86.75;;;81.55;;
13108;SDS011;6620;53.734;11.510;2023-05-07T00:13:38;95.13;;;89.30;;
13108;SDS011;6620;53.734;11.510;2023-05-07T00:16:03;98.00;;;92.10;;
13108;SDS011;6620;53.734;11.510;2023-05-07T00:18:29;105.90;;;99.53;;
13108;SDS011;6620;53.734;11.510;2023-05-07T00:20:54;75.93;;;71.25;;
13108;SDS011;6620;53.734;11.510;2023-05-07T00:23:19;82.25;;;77.05;;
13108;SDS011;6620;53.734;11.510;2023-05-07T00:25:45;76.65;;;71.90;;
13108;SDS011;6620;53.734;11.510;2023-05-07T00:28:10;90.22;;;84.82;;
13108;SDS011;6620;53.734;11.510;2023-05-07T00:30:35;78.23;;;73.20;;
13108;SDS011;6620;53.734;11.510;2023-05-07T00:33:00;86.65;;;81.50;;
13108;SDS011;6620;53.734;11.510;2023-05-07T00:35:27;83.68;;;78.30;;
13108;SDS011;6620;53.734;11.510;2023-05-07T00:37:53;88.80;;;83.43;;
13108;SDS011;6620;53.734;11.510;2023-05-07T00:40:18;65.43;;;61.63;;
13108;SDS011;6620;53.734;11.510;2023-05-07T00:42:43;68.05;;;63.88;;
13108;SDS011;6620;53.734;11.510;2023-05-07T00:45:11;56.85;;;53.33;;
13108;SDS011;6620;53.734;11.510;2023-05-07T00:47:37;60.13;;;56.50;;
13108;SDS011;6620;53.734;11.510;2023-05-07T00:50:02;52.13;;;48.70;;
13108;SDS011;6620;53.734;11.510;2023-05-07T00:52:27;75.60;;;71.07;;
13108;SDS011;6620;53.734;11.510;2023-05-07T00:54:53;86.35;;;81.40;;
13108;SDS011;6620;53.734;11.510;2023-05-07T00:57:18;67.60;;;63.30;;
13108;SDS011;6620;53.734;11.510;2023-05-07T00:59:45;92.43;;;87.15;;
13108;SDS011;6620;53.734;11.510;2023-05-07T01:02:10;62.65;;;58.67;;
13108;SDS011;6620;53.734;11.510;2023-05-07T01:04:35;87.63;;;82.30;;
13108;SDS011;6620;53.734;11.510;2023-05-07T01:07:01;63.50;;;59.65;;
13108;SDS011;6620;53.734;11.510;2023-05-07T01:09:27;54.65;;;51.08;;
13108;SDS011;6620;53.734;11.510;2023-05-07T01:11:53;57.92;;;54.45;;
13108;SDS011;6620;53.734;11.510;2023-05-07T01:14:19;119.00;;;112.10;;
13108;SDS011;6620;53.734;11.510;2023-05-07T01:16:45;71.72;;;67.40;;
13108;SDS011;6620;53.734;11.510;2023-05-07T01:19:11;51.95;;;48.72;;
13108;SDS011;6620;53.734;11.510;2023-05-07T01:21:38;118.85;;;112.13;;
13108;SDS011;6620;53.734;11.510;2023-05-07T01:24:05;54.75;;;51.42;;
13108;SDS011;6620;53.734;11.510;2023-05-07T01:26:31;58.45;;;54.67;;
13108;SDS011;6620;53.734;11.510;2023-05-07T01:28:56;54.13;;;50.90;;
13108;SDS011;6620;53.734;11.510;2023-05-07T01:31:21;79.37;;;74.63;;
13108;SDS011;6620;53.734;11.510;2023-05-07T01:33:47;47.60;;;44.53;;
13108;SDS011;6620;53.734;11.510;2023-05-07T01:36:13;58.65;;;54.95;;
13108;SDS011;6620;53.734;11.510;2023-05-07T01:38:39;49.72;;;46.33;;
13108;SDS011;6620;53.734;11.510;2023-05-07T01:41:06;45.58;;;42.65;;
13108;SDS011;6620;53.734;11.510;2023-05-07T01:43:31;55.33;;;51.90;;
13108;SDS011;6620;53.734;11.510;2023-05-07T01:45:57;80.00;;;75.10;;
13108;SDS011;6620;53.734;11.510;2023-05-07T01:48:22;56.60;;;52.88;;
13108;SDS011;6620;53.734;11.510;2023-05-07T01:50:48;57.50;;;53.92;;
13108;SDS011;6620;53.734;11.510;2023-05-07T01:53:13;76.30;;;71.32;;
13108;SDS011;6620;53.734;11.510;2023-05-07T01:55:38;60.33;;;56.37;;
13108;SDS011;6620;53.734;11.510;2023-05-07T01:58:04;56.67;;;53.03;;
13108;SDS011;6620;53.734;11.510;2023-05-07T02:00:30;69.15;;;64.97;;
13108;SDS011;6620;53.734;11.510;2023-05-07T02:02:55;66.60;;;62.42;;
13108;SDS011;6620;53.734;11.510;2023-05-07T02:05:21;61.97;;;58.28;;
13108;SDS011;6620;53.734;11.510;2023-05-07T02:07:46;60.90;;;57.10;;
13108;SDS011;6620;53.734;11.510;2023-05-07T02:10:11;119.25;;;112.22;;
13108;SDS011;6620;53.734;11.510;2023-05-07T02:12:37;61.57;;;57.70;;
13108;SDS011;6620;53.734;11.510;2023-05-07T02:15:02;108.83;;;102.43;;
13108;SDS011;6620;53.734;11.510;2023-05-07T02:17:27;121.38;;;113.90;;
13108;SDS011;6620;53.734;11.510;2023-05-07T02:19:56;72.78;;;68.00;;
13108;SDS011;6620;53.734;11.510;2023-05-07T02:22:21;63.73;;;59.57;;
13108;SDS011;6620;53.734;11.510;2023-05-07T02:24:46;64.43;;;60.63;;
13108;SDS011;6620;53.734;11.510;2023-05-07T02:27:12;57.60;;;53.80;;
13108;SDS011;6620;53.734;11.510;2023-05-07T02:29:37;62.87;;;59.03;;
13108;SDS011;6620;53.734;11.510;2023-05-07T02:32:02;74.23;;;69.77;;
13108;SDS011;6620;53.734;11.510;2023-05-07T02:34:27;89.78;;;84.22;;
13108;SDS011;6620;53.734;11.510;2023-05-07T02:36:52;70.28;;;65.72;;
13108;SDS011;6620;53.734;11.510;2023-05-07T02:39:18;63.97;;;59.63;;
13108;SDS011;6620;53.734;11.510;2023-05-07T02:41:43;61.13;;;57.30;;
13108;SDS011;6620;53.734;11.510;2023-05-07T02:44:08;58.17;;;54.53;;
13108;SDS011;6620;53.734;11.510;2023-05-07T02:46:34;71.72;;;67.43;;
13108;SDS011;6620;53.734;11.510;2023-05-07T02:48:59;72.10;;;67.80;;
13108;SDS011;6620;53.734;11.510;2023-05-07T02:51:25;60.47;;;56.60;;
13108;SDS011;6620;53.734;11.510;2023-05-07T02:53:50;56.78;;;53.10;;
13108;SDS011;6620;53.734;11.510;2023-05-07T02:56:16;89.65;;;84.40;;
13108;SDS011;6620;53.734;11.510;2023-05-07T02:58:41;65.93;;;61.97;;
13108;SDS011;6620;53.734;11.510;2023-05-07T03:01:09;55.70;;;52.08;;
13108;SDS011;6620;53.734;11.510;2023-05-07T03:03:35;64.85;;;61.00;;
13108;SDS011;6620;53.734;11.510;2023-05-07T03:06:00;73.80;;;69.20;;
13108;SDS011;6620;53.734;11.510;2023-05-07T03:08:26;84.05;;;79.15;;
13108;SDS011;6620;53.734;11.510;2023-05-07T03:10:51;80.22;;;75.32;;
13108;SDS011;6620;53.734;11.510;2023-05-07T03:13:16;109.20;;;102.43;;
13108;SDS011;6620;53.734;11.510;2023-05-07T03:15:42;119.07;;;111.65;;
13108;SDS011;6620;53.734;11.510;2023-05-07T03:18:07;99.05;;;93.03;;
13108;SDS011;6620;53.734;11.510;2023-05-07T03:20:32;68.57;;;63.97;;
13108;SDS011;6620;53.734;11.510;2023-05-07T03:22:57;80.95;;;75.85;;
13108;SDS011;6620;53.734;11.510;2023-05-07T03:25:23;81.10;;;76.28;;
13108;SDS011;6620;53.734;11.510;2023-05-07T03:27:48;62.17;;;58.15;;
13108;SDS011;6620;53.734;11.510;2023-05-07T03:30:13;74.47;;;69.95;;
13108;SDS011;6620;53.734;11.510;2023-05-07T03:32:38;55.05;;;51.50;;
13108;SDS011;6620;53.734;11.510;2023-05-07T03:35:04;59.10;;;55.25;;
13108;SDS011;6620;53.734;11.510;2023-05-07T03:37:29;55.80;;;52.17;;
13108;SDS011;6620;53.734;11.510;2023-05-07T03:39:55;75.47;;;71.00;;
13108;SDS011;6620;53.734;11.510;2023-05-07T03:42:20;111.45;;;104.93;;
13108;SDS011;6620;53.734;11.510;2023-05-07T03:44:45;56.70;;;53.30;;
13108;SDS011;6620;53.734;11.510;2023-05-07T03:47:10;53.55;;;50.20;;
13108;SDS011;6620;53.734;11.510;2023-05-07T03:49:36;61.00;;;57.40;;
13108;SDS011;6620;53.734;11.510;2023-05-07T03:52:01;79.30;;;74.25;;
13108;SDS011;6620;53.734;11.510;2023-05-07T03:54:26;114.33;;;107.93;;
13108;SDS011;6620;53.734;11.510;2023-05-07T03:56:52;97.80;;;92.03;;
13108;SDS011;6620;53.734;11.510;2023-05-07T03:59:17;59.67;;;56.10;;
13108;SDS011;6620;53.734;11.510;2023-05-07T04:01:42;77.73;;;73.07;;
13108;SDS011;6620;53.734;11.510;2023-05-07T04:04:07;117.90;;;110.83;;
13108;SDS011;6620;53.734;11.510;2023-05-07T04:06:32;74.70;;;70.03;;
13108;SDS011;6620;53.734;11.510;2023-05-07T04:08:58;65.30;;;61.28;;
13108;SDS011;6620;53.734;11.510;2023-05-07T04:11:23;83.20;;;78.20;;
13108;SDS011;6620;53.734;11.510;2023-05-07T04:13:48;67.47;;;63.07;;
13108;SDS011;6620;53.734;11.510;2023-05-07T04:16:14;84.05;;;78.70;;
13108;SDS011;6620;53.734;11.510;2023-05-07T04:18:39;66.53;;;62.50;;
13108;SDS011;6620;53.734;11.510;2023-05-07T04:21:04;68.13;;;63.93;;
13108;SDS011;6620;53.734;11.510;2023-05-07T04:23:30;52.83;;;49.15;;
13108;SDS011;6620;53.734;11.510;2023-05-07T04:25:55;84.90;;;79.22;;
13108;SDS011;6620;53.734;11.510;2023-05-07T04:28:21;61.42;;;57.38;;
13108;SDS011;6620;53.734;11.510;2023-05-07T04:30:46;68.10;;;63.88;;
13108;SDS011;6620;53.734;11.510;2023-05-07T04:33:11;101.00;;;95.10;;
13108;SDS011;6620;53.734;11.510;2023-05-07T04:35:36;98.32;;;92.75;;
13108;SDS011;6620;53.734;11.510;2023-05-07T04:38:02;79.32;;;74.47;;
13108;SDS011;6620;53.734;11.510;2023-05-07T04:40:27;55.05;;;51.35;;
13108;SDS011;6620;53.734;11.510;2023-05-07T04:42:52;102.13;;;95.72;;
13108;SDS011;6620;53.734;11.510;2023-05-07T04:45:18;62.55;;;58.70;;
13108;SDS011;6620;53.734;11.510;2023-05-07T04:47:43;92.28;;;86.82;;
13108;SDS011;6620;53.734;11.510;2023-05-07T04:50:08;60.47;;;56.83;;
13108;SDS011;6620;53.734;11.510;2023-05-07T04:52:34;62.58;;;58.83;;
13108;SDS011;6620;53.734;11.510;2023-05-07T04:54:59;64.03;;;60.03;;
13108;SDS011;6620;53.734;11.510;2023-05-07T04:57:25;70.57;;;66.20;;
13108;SDS011;6620;53.734;11.510;2023-05-07T04:59:50;109.55;;;102.90;;
13108;SDS011;6620;53.734;11.510;2023-05-07T05:02:15;98.57;;;92.87;;
13108;SDS011;6620;53.734;11.510;2023-05-07T05:04:40;136.50;;;128.82;;
13108;SDS011;6620;53.734;11.510;2023-05-07T05:07:05;83.97;;;78.67;;
13108;SDS011;6620;53.734;11.510;2023-05-07T05:09:31;77.83;;;73.17;;
13108;SDS011;6620;53.734;11.510;2023-05-07T05:11:56;80.95;;;75.72;;
13108;SDS011;6620;53.734;11.510;2023-05-07T05:14:21;63.53;;;59.63;;
13108;SDS011;6620;53.734;11.510;2023-05-07T05:16:47;67.53;;;63.40;;
13108;SDS011;6620;53.734;11.510;2023-05-07T05:19:13;58.77;;;55.17;;
13108;SDS011;6620;53.734;11.510;2023-05-07T05:21:38;68.22;;;63.90;;
13108;SDS011;6620;53.734;11.510;2023-05-07T05:24:03;102.78;;;96.82;;
13108;SDS011;6620;53.734;11.510;2023-05-07T05:26:28;115.50;;;108.90;;
13108;SDS011;6620;53.734;11.510;2023-05-07T05:28:54;49.95;;;46.85;;
13108;SDS011;6620;53.734;11.510;2023-05-07T05:31:19;72.10;;;67.77;;
13108;SDS011;6620;53.734;11.510;2023-05-07T05:33:44;68.87;;;64.97;;
13108;SDS011;6620;53.734;11.510;2023-05-07T05:36:09;96.30;;;90.43;;
13108;SDS011;6620;53.734;11.510;2023-05-07T05:38:35;67.80;;;63.60;;
13108;SDS011;6620;53.734;11.510;2023-05-07T05:41:01;80.22;;;75.45;;
13108;SDS011;6620;53.734;11.510;2023-05-07T05:43:26;86.87;;;81.50;;
13108;SDS011;6620;53.734;11.510;2023-05-07T05:45:51;136.93;;;129.20;;
13108;SDS011;6620;53.734;11.510;2023-05-07T05:48:16;63.00;;;58.97;;
13108;SDS011;6620;53.734;11.510;2023-05-07T05:50:41;95.82;;;90.32;;
13108;SDS011;6620;53.734;11.510;2023-05-07T05:53:07;131.32;;;122.82;;
13108;SDS011;6620;53.734;11.510;2023-05-07T05:55:32;98.67;;;92.53;;
13108;SDS011;6620;53.734;11.510;2023-05-07T05:57:57;68.43;;;64.27;;
13108;SDS011;6620;53.734;11.510;2023-05-07T06:00:23;174.38;;;163.13;;
13108;SDS011;6620;53.734;11.510;2023-05-07T06:02:48;97.38;;;91.55;;
13108;SDS011;6620;53.734;11.510;2023-05-07T06:05:13;64.45;;;60.78;;
13108;SDS011;6620;53.734;11.510;2023-05-07T06:07:38;76.85;;;72.35;;
13108;SDS011;6620;53.734;11.510;2023-05-07T06:10:04;81.50;;;76.47;;
13108;SDS011;6620;53.734;11.510;2023-05-07T06:12:29;111.32;;;105.07;;
13108;SDS011;6620;53.734;11.510;2023-05-07T06:14:54;112.93;;;106.25;;
13108;SDS011;6620;53.734;11.510;2023-05-07T06:17:20;81.45;;;76.75;;
13108;SDS011;6620;53.734;11.510;2023-05-07T06:19:45;109.43;;;103.47;;
13108;SDS011;6620;53.734;11.510;2023-05-07T06:22:10;75.93;;;71.55;;
13108;SDS011;6620;53.734;11.510;2023-05-07T06:24:35;92.03;;;86.88;;
13108;SDS011;6620;53.734;11.510;2023-05-07T06:27:01;100.18;;;94.47;;
13108;SDS011;6620;53.734;11.510;2023-05-07T06:29:26;117.47;;;111.10;;
13108;SDS011;6620;53.734;11.510;2023-05-07T06:31:52;74.15;;;70.00;;
13108;SDS011;6620;53.734;11.510;2023-05-07T06:34:17;83.18;;;78.20;;
13108;SDS011;6620;53.734;11.510;2023-05-07T06:36:42;55.60;;;52.27;;
13108;SDS011;6620;53.734;11.510;2023-05-07T06:39:08;124.00;;;116.90;;
13108;SDS011;6620;53.734;11.510;2023-05-07T06:41:33;114.80;;;108.50;;
13108;SDS011;6620;53.734;11.510;2023-05-07T06:43:59;72.93;;;68.70;;
13108;SDS011;6620;53.734;11.510;2023-05-07T06:46:24;142.35;;;134.45;;
13108;SDS011;6620;53.734;11.510;2023-05-07T06:48:49;95.78;;;90.57;;
13108;SDS011;6620;53.734;11.510;2023-05-07T06:51:15;155.97;;;146.97;;
13108;SDS011;6620;53.734;11.510;2023-05-07T06:53:40;135.77;;;128.45;;
13108;SDS011;6620;53.734;11.510;2023-05-07T06:56:05;141.68;;;133.82;;
13108;SDS011;6620;53.734;11.510;2023-05-07T06:58:30;93.60;;;88.45;;
13108;SDS011;6620;53.734;11.510;2023-05-07T07:00:56;89.17;;;84.13;;
13108;SDS011;6620;53.734;11.510;2023-05-07T07:03:21;119.57;;;113.13;;
13108;SDS011;6620;53.734;11.510;2023-05-07T07:05:46;154.02;;;145.70;;
13108;SDS011;6620;53.734;11.510;2023-05-07T07:08:11;106.35;;;100.40;;
13108;SDS011;6620;53.734;11.510;2023-05-07T07:10:37;97.33;;;91.93;;
13108;SDS011;6620;53.734;11.510;2023-05-07T07:13:02;116.10;;;109.60;;
13108;SDS011;6620;53.734;11.510;2023-05-07T07:15:27;91.10;;;85.67;;
13108;SDS011;6620;53.734;11.510;2023-05-07T07:17:52;76.57;;;72.37;;
13108;SDS011;6620;53.734;11.510;2023-05-07T07:20:17;92.55;;;87.63;;
13108;SDS011;6620;53.734;11.510;2023-05-07T07:22:43;84.40;;;79.50;;
13108;SDS011;6620;53.734;11.510;2023-05-07T07:25:08;99.53;;;94.32;;
13108;SDS011;6620;53.734;11.510;2023-05-07T07:27:33;112.38;;;106.15;;
13108;SDS011;6620;53.734;11.510;2023-05-07T07:29:58;78.50;;;74.40;;
13108;SDS011;6620;53.734;11.510;2023-05-07T07:32:24;141.98;;;133.40;;
13108;SDS011;6620;53.734;11.510;2023-05-07T07:34:49;88.75;;;83.93;;
13108;SDS011;6620;53.734;11.510;2023-05-07T07:37:14;117.45;;;111.00;;
13108;SDS011;6620;53.734;11.510;2023-05-07T07:39:39;108.13;;;102.30;;
13108;SDS011;6620;53.734;11.510;2023-05-07T07:42:05;236.52;;;220.70;;
13108;SDS011;6620;53.734;11.510;2023-05-07T07:44:30;116.97;;;110.47;;
13108;SDS011;6620;53.734;11.510;2023-05-07T07:46:55;87.23;;;82.53;;
13108;SDS011;6620;53.734;11.510;2023-05-07T07:49:20;136.63;;;129.05;;
13108;SDS011;6620;53.734;11.510;2023-05-07T07:51:45;149.53;;;140.90;;
13108;SDS011;6620;53.734;11.510;2023-05-07T07:54:11;141.43;;;133.57;;
13108;SDS011;6620;53.734;11.510;2023-05-07T07:56:36;151.63;;;142.93;;
13108;SDS011;6620;53.734;11.510;2023-05-07T07:59:01;113.43;;;107.35;;
13108;SDS011;6620;53.734;11.510;2023-05-07T08:01:27;128.30;;;120.93;;
13108;SDS011;6620;53.734;11.510;2023-05-07T08:03:52;135.45;;;128.13;;
13108;SDS011;6620;53.734;11.510;2023-05-07T08:06:17;123.53;;;117.00;;
13108;SDS011;6620;53.734;11.510;2023-05-07T08:08:43;139.80;;;132.02;;
13108;SDS011;6620;53.734;11.510;2023-05-07T08:11:08;133.57;;;126.45;;
13108;SDS011;6620;53.734;11.510;2023-05-07T08:13:33;119.10;;;112.75;;
13108;SDS011;6620;53.734;11.510;2023-05-07T08:15:58;126.57;;;119.90;;
13108;SDS011;6620;53.734;11.510;2023-05-07T08:18:24;197.90;;;187.07;;
13108;SDS011;6620;53.734;11.510;2023-05-07T08:20:50;165.55;;;156.70;;
13108;SDS011;6620;53.734;11.510;2023-05-07T08:23:15;195.95;;;184.38;;
13108;SDS011;6620;53.734;11.510;2023-05-07T08:25:40;219.15;;;204.05;;
13108;SDS011;6620;53.734;11.510;2023-05-07T08:28:07;136.15;;;128.70;;
13108;SDS011;6620;53.734;11.510;2023-05-07T08:30:32;156.95;;;148.52;;
13108;SDS011;6620;53.734;11.510;2023-05-07T08:32:58;170.30;;;160.70;;
13108;SDS011;6620;53.734;11.510;2023-05-07T08:35:23;159.38;;;150.57;;
13108;SDS011;6620;53.734;11.510;2023-05-07T08:37:48;144.73;;;136.88;;
13108;SDS011;6620;53.734;11.510;2023-05-07T08:40:13;203.88;;;192.00;;
13108;SDS011;6620;53.734;11.510;2023-05-07T08:42:39;165.48;;;156.80;;
13108;SDS011;6620;53.734;11.510;2023-05-07T08:45:06;152.55;;;144.43;;
13108;SDS011;6620;53.734;11.510;2023-05-07T08:47:34;169.45;;;160.30;;
13108;SDS011;6620;53.734;11.510;2023-05-07T08:50:03;185.13;;;175.07;;
13108;SDS011;6620;53.734;11.510;2023-05-07T08:52:30;187.95;;;177.73;;
13108;SDS011;6620;53.734;11.510;2023-05-07T08:54:55;211.02;;;199.07;;
13108;SDS011;6620;53.734;11.510;2023-05-07T08:57:21;150.30;;;141.98;;
13108;SDS011;6620;53.734;11.510;2023-05-07T08:59:48;201.60;;;190.85;;
13108;SDS011;6620;53.734;11.510;2023-05-07T09:02:13;239.25;;;225.32;;
13108;SDS011;6620;53.734;11.510;2023-05-07T09:04:39;208.07;;;196.52;;
13108;SDS011;6620;53.734;11.510;2023-05-07T09:07:04;186.85;;;176.63;;
13108;SDS011;6620;53.734;11.510;2023-05-07T09:09:32;215.38;;;203.48;;
13108;SDS011;6620;53.734;11.510;2023-05-07T09:11:57;231.55;;;219.18;;
13108;SDS011;6620;53.734;11.510;2023-05-07T09:14:25;164.07;;;155.15;;
13108;SDS011;6620;53.734;11.510;2023-05-07T09:16:52;193.80;;;183.17;;
13108;SDS011;6620;53.734;11.510;2023-05-07T09:19:18;211.05;;;199.80;;
13108;SDS011;6620;53.734;11.510;2023-05-07T09:21:46;258.77;;;245.43;;
13108;SDS011;6620;53.734;11.510;2023-05-07T09:24:12;209.82;;;198.45;;
13108;SDS011;6620;53.734;11.510;2023-05-07T09:26:40;290.30;;;273.77;;
13108;SDS011;6620;53.734;11.510;2023-05-07T09:29:05;206.25;;;195.02;;
13108;SDS011;6620;53.734;11.510;2023-05-07T09:31:31;231.57;;;219.15;;
13108;SDS011;6620;53.734;11.510;2023-05-07T09:33:57;212.90;;;201.30;;
13108;SDS011;6620;53.734;11.510;2023-05-07T09:36:22;277.85;;;262.60;;
13108;SDS011;6620;53.734;11.510;2023-05-07T09:38:47;238.82;;;225.88;;
13108;SDS011;6620;53.734;11.510;2023-05-07T09:41:14;203.40;;;192.32;;
13108;SDS011;6620;53.734;11.510;2023-05-07T09:43:39;275.42;;;260.08;;
13108;SDS011;6620;53.734;11.510;2023-05-07T09:46:11;227.27;;;214.10;;
13108;SDS011;6620;53.734;11.510;2023-05-07T09:51:02;181.00;;;171.23;;
13108;SDS011;6620;53.734;11.510;2023-05-07T09:53:29;290.13;;;274.63;;
13108;SDS011;6620;53.734;11.510;2023-05-07T09:55:54;239.75;;;227.13;;
13108;SDS011;6620;53.734;11.510;2023-05-07T09:58:20;268.08;;;252.35;;
13108;SDS011;6620;53.734;11.510;2023-05-07T10:00:47;276.63;;;261.73;;
13108;SDS011;6620;53.734;11.510;2023-05-07T10:03:13;283.42;;;267.92;;
13108;SDS011;6620;53.734;11.510;2023-05-07T10:05:39;233.40;;;220.25;;
13108;SDS011;6620;53.734;11.510;2023-05-07T10:08:05;261.52;;;247.40;;
13108;SDS011;6620;53.734;11.510;2023-05-07T10:10:30;214.70;;;202.50;;
13108;SDS011;6620;53.734;11.510;2023-05-07T10:12:55;336.65;;;317.80;;
13108;SDS011;6620;53.734;11.510;2023-05-07T10:15:21;248.43;;;234.88;;
13108;SDS011;6620;53.734;11.510;2023-05-07T10:17:46;351.02;;;331.83;;
13108;SDS011;6620;53.734;11.510;2023-05-07T10:20:13;236.10;;;222.77;;
13108;SDS011;6620;53.734;11.510;2023-05-07T10:22:39;239.85;;;226.25;;
13108;SDS011;6620;53.734;11.510;2023-05-07T10:25:28;219.68;;;207.82;;
13108;SDS011;6620;53.734;11.510;2023-05-07T10:27:51;296.92;;;278.98;;
13108;SDS011;6620;53.734;11.510;2023-05-07T10:32:47;331.65;;;313.70;;
13108;SDS011;6620;53.734;11.510;2023-05-07T10:35:15;448.67;;;418.65;;
13108;SDS011;6620;53.734;11.510;2023-05-07T10:37:41;216.85;;;204.60;;
13108;SDS011;6620;53.734;11.510;2023-05-07T10:40:06;253.10;;;238.60;;
13108;SDS011;6620;53.734;11.510;2023-05-07T10:42:33;257.38;;;243.02;;
13108;SDS011;6620;53.734;11.510;2023-05-07T10:45:10;258.95;;;244.70;;
13108;SDS011;6620;53.734;11.510;2023-05-07T10:47:36;242.73;;;229.45;;
13108;SDS011;6620;53.734;11.510;2023-05-07T10:50:21;236.68;;;224.00;;
13108;SDS011;6620;53.734;11.510;2023-05-07T10:52:46;202.07;;;191.00;;
13108;SDS011;6620;53.734;11.510;2023-05-07T10:55:31;241.98;;;229.00;;
13108;SDS011;6620;53.734;11.510;2023-05-07T10:57:56;214.00;;;202.27;;
13108;SDS011;6620;53.734;11.510;2023-05-07T11:00:42;322.25;;;305.00;;
13108;SDS011;6620;53.734;11.510;2023-05-07T11:03:07;253.48;;;239.50;;
13108;SDS011;6620;53.734;11.510;2023-05-07T11:05:33;278.10;;;262.67;;
13108;SDS011;6620;53.734;11.510;2023-05-07T11:08:02;232.70;;;220.18;;
13108;SDS011;6620;53.734;11.510;2023-05-07T11:13:11;213.90;;;202.40;;
13108;SDS011;6620;53.734;11.510;2023-05-07T11:15:37;253.77;;;239.75;;
13108;SDS011;6620;53.734;11.510;2023-05-07T11:18:03;312.52;;;294.63;;
13108;SDS011;6620;53.734;11.510;2023-05-07T11:20:44;250.38;;;236.27;;
13108;SDS011;6620;53.734;11.510;2023-05-07T11:25:57;193.65;;;182.95;;
13108;SDS011;6620;53.734;11.510;2023-05-07T11:28:23;201.80;;;190.65;;
13108;SDS011;6620;53.734;11.510;2023-05-07T11:30:48;249.95;;;236.02;;
13108;SDS011;6620;53.734;11.510;2023-05-07T11:33:16;239.70;;;226.27;;
13108;SDS011;6620;53.734;11.510;2023-05-07T11:35:41;213.73;;;201.85;;
13108;SDS011;6620;53.734;11.510;2023-05-07T11:38:07;248.48;;;234.65;;
13108;SDS011;6620;53.734;11.510;2023-05-07T11:40:32;208.98;;;197.23;;
13108;SDS011;6620;53.734;11.510;2023-05-07T11:42:57;199.37;;;188.83;;
13108;SDS011;6620;53.734;11.510;2023-05-07T11:45:23;232.30;;;219.80;;
13108;SDS011;6620;53.734;11.510;2023-05-07T11:47:50;284.15;;;268.38;;
13108;SDS011;6620;53.734;11.510;2023-05-07T11:50:15;327.90;;;306.40;;
13108;SDS011;6620;53.734;11.510;2023-05-07T11:52:49;227.18;;;214.32;;
13108;SDS011;6620;53.734;11.510;2023-05-07T11:55:15;262.50;;;247.43;;
13108;SDS011;6620;53.734;11.510;2023-05-07T11:57:43;188.32;;;178.45;;
13108;SDS011;6620;53.734;11.510;2023-05-07T12:00:08;256.42;;;242.82;;
13108;SDS011;6620;53.734;11.510;2023-05-07T12:02:34;251.75;;;237.85;;
13108;SDS011;6620;53.734;11.510;2023-05-07T12:05:00;283.50;;;267.75;;
13108;SDS011;6620;53.734;11.510;2023-05-07T12:07:25;222.50;;;210.50;;
13108;SDS011;6620;53.734;11.510;2023-05-07T12:09:50;320.67;;;303.37;;
13108;SDS011;6620;53.734;11.510;2023-05-07T12:12:15;492.73;;;461.92;;
13108;SDS011;6620;53.734;11.510;2023-05-07T12:14:42;311.73;;;294.70;;
13108;SDS011;6620;53.734;11.510;2023-05-07T12:17:08;268.33;;;253.68;;
13108;SDS011;6620;53.734;11.510;2023-05-07T12:19:34;189.70;;;179.23;;
13108;SDS011;6620;53.734;11.510;2023-05-07T12:22:00;227.60;;;215.13;;
13108;SDS011;6620;53.734;11.510;2023-05-07T12:24:26;304.30;;;287.55;;
13108;SDS011;6620;53.734;11.510;2023-05-07T12:26:51;273.85;;;258.40;;
13108;SDS011;6620;53.734;11.510;2023-05-07T12:29:16;285.88;;;270.73;;
13108;SDS011;6620;53.734;11.510;2023-05-07T12:31:42;349.55;;;330.00;;
13108;SDS011;6620;53.734;11.510;2023-05-07T12:34:08;261.23;;;246.45;;
13108;SDS011;6620;53.734;11.510;2023-05-07T12:36:39;204.77;;;193.70;;
13108;SDS011;6620;53.734;11.510;2023-05-07T12:39:05;223.70;;;211.02;;
13108;SDS011;6620;53.734;11.510;2023-05-07T12:41:30;246.57;;;232.63;;
13108;SDS011;6620;53.734;11.510;2023-05-07T12:44:00;206.77;;;195.60;;
13108;SDS011;6620;53.734;11.510;2023-05-07T12:46:25;253.45;;;239.45;;
13108;SDS011;6620;53.734;11.510;2023-05-07T12:48:51;223.70;;;211.25;;
13108;SDS011;6620;53.734;11.510;2023-05-07T12:51:17;241.75;;;228.80;;
13108;SDS011;6620;53.734;11.510;2023-05-07T12:53:43;232.40;;;219.20;;
13108;SDS011;6620;53.734;11.510;2023-05-07T12:56:08;271.48;;;256.27;;
13108;SDS011;6620;53.734;11.510;2023-05-07T12:58:34;262.73;;;248.43;;
13108;SDS011;6620;53.734;11.510;2023-05-07T13:01:01;279.90;;;264.20;;
13108;SDS011;6620;53.734;11.510;2023-05-07T13:03:36;226.90;;;214.00;;
13108;SDS011;6620;53.734;11.510;2023-05-07T13:06:02;206.18;;;194.55;;
13108;SDS011;6620;53.734;11.510;2023-05-07T13:10:53;321.30;;;303.00;;
13108;SDS011;6620;53.734;11.510;2023-05-07T13:13:19;241.88;;;228.68;;
13108;SDS011;6620;53.734;11.510;2023-05-07T13:15:45;417.48;;;393.25;;
13108;SDS011;6620;53.734;11.510;2023-05-07T13:18:10;261.38;;;247.02;;
13108;SDS011;6620;53.734;11.510;2023-05-07T13:20:36;189.48;;;178.80;;
13108;SDS011;6620;53.734;11.510;2023-05-07T13:23:01;330.70;;;312.23;;
13108;SDS011;6620;53.734;11.510;2023-05-07T13:25:29;201.60;;;190.48;;
13108;SDS011;6620;53.734;11.510;2023-05-07T13:27:54;260.17;;;245.25;;
13108;SDS011;6620;53.734;11.510;2023-05-07T13:30:19;254.77;;;241.47;;
13108;SDS011;6620;53.734;11.510;2023-05-07T13:32:44;296.67;;;280.03;;
13108;SDS011;6620;53.734;11.510;2023-05-07T13:35:12;249.68;;;235.88;;
13108;SDS011;6620;53.734;11.510;2023-05-07T13:37:38;245.63;;;232.43;;
13108;SDS011;6620;53.734;11.510;2023-05-07T13:40:03;251.73;;;237.90;;
13108;SDS011;6620;53.734;11.510;2023-05-07T13:42:28;367.90;;;347.48;;
13108;SDS011;6620;53.734;11.510;2023-05-07T13:44:53;193.63;;;183.03;;
13108;SDS011;6620;53.734;11.510;2023-05-07T13:47:19;262.45;;;248.15;;
13108;SDS011;6620;53.734;11.510;2023-05-07T13:49:44;269.60;;;254.48;;
13108;SDS011;6620;53.734;11.510;2023-05-07T13:52:09;302.50;;;285.65;;
13108;SDS011;6620;53.734;11.510;2023-05-07T13:54:35;283.52;;;267.95;;
13108;SDS011;6620;53.734;11.510;2023-05-07T13:57:00;289.00;;;273.27;;
13108;SDS011;6620;53.734;11.510;2023-05-07T13:59:26;270.48;;;255.77;;
13108;SDS011;6620;53.734;11.510;2023-05-07T14:01:52;325.25;;;307.67;;
13108;SDS011;6620;53.734;11.510;2023-05-07T14:04:18;287.60;;;271.33;;
13108;SDS011;6620;53.734;11.510;2023-05-07T14:06:44;288.58;;;273.10;;
13108;SDS011;6620;53.734;11.510;2023-05-07T14:09:10;266.67;;;251.45;;
13108;SDS011;6620;53.734;11.510;2023-05-07T14:11:38;290.33;;;274.70;;
13108;SDS011;6620;53.734;11.510;2023-05-07T14:14:05;309.83;;;292.13;;